Time;durP1;ratioP1;P1;durP2;ratioP2;P2;SDS_P1;SDS_P2;PMS_P1;PMS_P2;Temp;Humidity;BMP_temperature;BMP_pressure;BME280_temperature;BME280_humidity;BME280_pressure;Samples;Min_cycle;Max_cycle;Signal;HPM_P1;HPM_P2
2022/03/26 00:00:37;;;;;;;12.03;9.53;;;15.00;82.70;;;15.63;40.26;102584.75;4941319;28;103637;-49
2022/03/26 00:03:06;;;;;;;37.83;27.80;;;15.00;81.80;;;15.60;39.76;102584.81;4944012;28;98645;-48
2022/03/26 00:05:33;;;;;;;11.33;9.03;;;14.90;81.70;;;15.60;40.43;102593.66;4941484;28;97328;-48
2022/03/26 00:07:59;;;;;;;9.77;8.03;;;15.00;83.10;;;15.61;40.47;102590.09;4945048;28;98689;-46
2022/03/26 00:10:25;;;;;;;10.53;8.90;;;15.00;83.50;;;15.63;40.32;102601.59;4946241;28;99750;-56
2022/03/26 00:12:52;;;;;;;13.80;10.87;;;15.00;82.60;;;15.65;40.39;102594.44;4941667;28;120244;-46
2022/03/26 00:15:19;;;;;;;29.77;21.40;;;15.00;82.30;;;15.67;40.38;102597.06;4944153;28;98835;-47
2022/03/26 00:17:45;;;;;;;13.83;11.27;;;15.10;82.00;;;15.60;40.58;102596.31;4937368;28;97623;-49
2022/03/26 00:20:11;;;;;;;14.10;11.60;;;15.00;83.10;;;15.62;40.58;102594.53;4943670;28;120981;-50
2022/03/26 00:22:37;;;;;;;22.83;17.07;;;15.00;82.80;;;15.56;40.49;102589.31;4943309;28;100162;-46
2022/03/26 00:25:04;;;;;;;31.17;21.10;;;14.90;83.00;;;15.62;40.36;102588.31;4946440;28;96910;-48
2022/03/26 00:27:30;;;;;;;11.33;9.87;;;15.00;82.10;;;15.57;40.64;102590.19;4945411;28;97793;-47
2022/03/26 00:29:56;;;;;;;21.80;16.40;;;14.90;83.70;;;15.61;40.49;102584.78;4948387;28;98163;-46
2022/03/26 00:32:23;;;;;;;32.20;22.70;;;15.00;82.50;;;15.59;40.27;102589.25;4946734;28;98395;-46
2022/03/26 00:34:49;;;;;;;39.17;27.97;;;14.90;82.20;;;15.54;40.44;102588.47;4943813;28;97162;-49
2022/03/26 00:37:16;;;;;;;10.60;9.50;;;14.80;82.60;;;15.52;40.74;102592.97;4944821;28;126944;-50
2022/03/26 00:39:42;;;;;;;11.50;8.60;;;14.80;83.80;;;15.53;40.77;102593.84;4944171;28;97636;-46
2022/03/26 00:42:09;;;;;;;17.37;12.80;;;14.80;84.10;;;15.53;40.66;102589.41;4947182;28;98759;-48
2022/03/26 00:44:37;;;;;;;23.03;16.47;;;14.90;83.20;;;15.57;40.79;102596.38;4943925;28;97288;-48
2022/03/26 00:47:04;;;;;;;11.57;10.23;;;14.90;82.90;;;15.52;40.86;102594.75;4946212;28;102538;-52
2022/03/26 00:49:30;;;;;;;29.43;19.03;;;14.80;83.30;;;15.53;40.69;102592.06;4943252;28;96944;-51
2022/03/26 00:51:56;;;;;;;40.23;27.50;;;14.90;83.00;;;15.52;40.39;102587.66;4948614;28;98255;-51
2022/03/26 00:54:23;;;;;;;13.07;11.53;;;14.80;82.40;;;15.56;40.65;102591.09;4948718;28;97027;-50
2022/03/26 00:56:49;;;;;;;20.97;16.53;;;14.90;83.60;;;15.53;40.71;102586.75;4945154;28;97670;-47
2022/03/26 00:59:15;;;;;;;38.27;26.90;;;14.80;83.10;;;15.50;40.52;102578.84;4947636;28;98706;-52
2022/03/26 01:01:41;;;;;;;28.53;21.10;;;14.80;82.90;;;15.46;40.87;102587.78;4943543;28;97963;-51
2022/03/26 01:04:07;;;;;;;34.47;26.57;;;14.70;83.20;;;15.45;40.93;102575.41;4946921;28;111653;-49
2022/03/26 01:06:34;;;;;;;14.90;10.70;;;14.70;83.00;;;15.35;41.10;102573.91;4942709;28;98770;-48
2022/03/26 01:09:00;;;;;;;36.00;26.60;;;14.50;85.10;;;15.38;40.96;102580.03;4946513;28;97336;-49
2022/03/26 01:11:26;;;;;;;11.33;9.83;;;14.60;83.00;;;15.40;41.29;102579.97;4945625;28;98038;-53
2022/03/26 01:13:56;;;;;;;11.90;8.77;;;14.60;84.90;;;15.43;41.16;102579.91;4945022;28;118679;-54
2022/03/26 01:16:25;;;;;;;30.63;22.30;;;14.80;84.30;;;15.44;41.01;102574.53;4945161;28;98225;-50
2022/03/26 01:18:52;;;;;;;11.67;9.43;;;14.80;82.70;;;15.44;40.96;102573.66;4942900;28;102405;-53
2022/03/26 01:21:19;;;;;;;12.87;10.33;;;14.80;85.00;;;15.44;40.91;102573.66;4947660;28;99122;-52
2022/03/26 01:23:46;;;;;;;29.20;19.27;;;14.80;84.20;;;15.45;40.99;102576.28;4942539;28;99099;-53
2022/03/26 01:26:14;;;;;;;12.80;9.97;;;14.80;82.60;;;15.40;41.04;102564.03;4946314;28;97517;-52
2022/03/26 01:28:41;;;;;;;10.93;8.80;;;14.60;84.50;;;15.40;41.04;102569.34;4942003;28;99006;-56
2022/03/26 01:31:06;;;;;;;38.67;27.80;;;14.60;84.90;;;15.36;40.35;102570.34;4947422;28;98327;-48
2022/03/26 01:33:32;;;;;;;14.63;11.30;;;14.60;82.70;;;15.36;41.14;102565.91;4942990;28;98937;-53
2022/03/26 01:35:58;;;;;;;10.70;9.43;;;14.60;84.30;;;15.36;41.18;102565.03;4944734;28;101628;-50
2022/03/26 01:38:24;;;;;;;22.87;16.90;;;14.60;85.30;;;15.37;40.95;102574.75;4945029;28;110423;-55
2022/03/26 01:40:50;;;;;;;24.77;18.83;;;14.70;84.10;;;15.37;40.79;102572.09;4941393;28;112009;-53
2022/03/26 01:43:15;;;;;;;11.07;9.87;;;14.60;83.60;;;15.33;41.26;102576.59;4939309;28;115755;-53
2022/03/26 01:45:42;;;;;;;22.40;17.40;;;14.60;85.30;;;15.29;41.25;102566.94;4939816;28;97679;-55
2022/03/26 01:48:08;;;;;;;18.90;15.63;;;14.50;84.30;;;15.28;41.11;102575.84;4941888;28;99235;-51
2022/03/26 01:50:34;;;;;;;12.17;9.97;;;14.50;84.50;;;15.22;41.38;102565.38;4940850;28;98997;-51
2022/03/26 01:53:00;;;;;;;32.70;22.73;;;14.40;86.70;;;15.23;41.38;102564.47;4947120;28;97508;-52
2022/03/26 01:55:27;;;;;;;10.50;9.17;;;14.50;84.30;;;15.28;41.28;102559.88;4950242;28;97371;-57
2022/03/26 01:57:55;;;;;;;12.10;9.73;;;14.50;85.80;;;15.30;41.22;102562.50;4937171;28;99291;-52
2022/03/26 02:00:21;;;;;;;12.63;10.43;;;14.60;84.90;;;15.27;41.40;102559.94;4944321;28;97214;-57
2022/03/26 02:02:47;;;;;;;10.73;8.33;;;14.50;85.10;;;15.22;41.45;102553.88;4938868;28;118451;-52
2022/03/26 02:05:20;;;;;;;13.37;10.63;;;14.40;86.00;;;15.23;41.47;102559.13;4943524;28;128849;-55
2022/03/26 02:07:47;;;;;;;10.73;9.23;;;14.50;85.50;;;15.20;41.54;102558.34;4942174;28;97876;-50
2022/03/26 02:10:16;;;;;;;29.60;22.53;;;14.40;84.90;;;15.16;41.48;102553.09;4945811;28;97182;-49
2022/03/26 02:12:45;;;;;;;14.87;11.63;;;14.40;85.20;;;15.18;41.74;102556.56;4945557;28;98915;-51
2022/03/26 02:15:12;;;;;;;12.07;9.80;;;14.40;86.20;;;15.17;41.60;102552.16;4944787;28;97845;-50
2022/03/26 02:17:38;;;;;;;15.37;12.60;;;14.40;85.50;;;15.11;41.60;102565.63;4944542;28;99091;-56
2022/03/26 02:20:08;;;;;;;12.83;11.07;;;14.30;85.20;;;15.13;41.98;102558.47;4941190;28;99027;-52
2022/03/26 02:22:34;;;;;;;18.20;14.40;;;14.30;85.70;;;15.09;41.83;102569.25;4944862;28;98909;-50
2022/03/26 02:25:00;;;;;;;32.00;22.90;;;14.30;85.80;;;15.06;41.76;102569.31;4942585;28;129426;-51
2022/03/26 02:27:28;;;;;;;22.17;15.20;;;14.10;86.20;;;15.02;41.97;102576.47;4947966;28;98561;-48
2022/03/26 02:29:54;;;;;;;11.17;9.33;;;14.10;87.00;;;15.01;42.12;102574.72;4942200;28;97229;-52
2022/03/26 02:32:26;;;;;;;18.83;14.93;;;14.10;87.20;;;15.04;42.03;102569.31;4947314;28;98300;-50
2022/03/26 02:34:53;;;;;;;18.37;13.70;;;14.20;86.00;;;15.01;42.17;102572.06;4940956;28;99195;-53
2022/03/26 02:37:19;;;;;;;14.00;11.73;;;14.10;86.60;;;14.99;41.99;102576.56;4944958;28;97390;-48
2022/03/26 02:39:45;;;;;;;20.63;16.23;;;14.10;86.80;;;15.01;41.98;102579.16;4942359;28;99473;-51
2022/03/26 02:42:13;;;;;;;12.37;11.07;;;14.10;86.20;;;14.98;42.15;102580.13;4947836;28;98238;-53
2022/03/26 02:44:40;;;;;;;11.30;9.57;;;14.10;86.60;;;14.98;42.06;102580.13;4960121;28;97863;-54
2022/03/26 02:47:15;;;;;;;11.60;9.53;;;14.10;87.50;;;15.00;41.94;102575.63;4946687;28;101374;-49
2022/03/26 02:49:41;;;;;;;12.43;9.63;;;14.10;86.80;;;15.00;42.06;102578.28;4921194;28;97453;-52
2022/03/26 02:52:07;;;;;;;18.33;13.87;;;14.10;86.80;;;15.00;42.11;102572.09;4930105;28;97003;-51
2022/03/26 02:54:33;;;;;;;10.83;8.77;;;14.20;85.80;;;15.00;42.09;102580.97;4946987;28;98529;-52
2022/03/26 02:56:59;;;;;;;11.43;9.90;;;14.20;86.40;;;14.98;42.25;102569.50;4942067;28;98208;-50
2022/03/26 02:59:25;;;;;;;13.13;11.23;;;14.10;86.50;;;14.99;41.86;102579.22;4940422;28;111255;-49
2022/03/26 03:01:53;;;;;;;24.30;17.80;;;14.20;86.00;;;14.99;41.95;102573.88;4934933;28;98409;-51
2022/03/26 03:04:21;;;;;;;16.97;13.73;;;14.10;85.30;;;14.98;42.04;102574.81;4941105;28;97406;-52
2022/03/26 03:06:47;;;;;;;12.73;9.90;;;14.10;86.90;;;14.99;42.11;102581.88;4937606;28;100000;-53
2022/03/26 03:09:13;;;;;;;37.97;27.27;;;14.10;88.40;;;15.00;41.34;102580.97;4944392;28;98657;-51
2022/03/26 03:11:39;;;;;;;11.70;9.77;;;14.20;84.30;;;15.01;42.06;102577.38;4940831;28;117225;-56
2022/03/26 03:14:06;;;;;;;21.37;16.60;;;14.20;87.20;;;15.02;42.01;102575.59;4941829;28;124683;-57
2022/03/26 03:16:32;;;;;;;10.60;9.43;;;14.20;85.50;;;15.00;42.04;102572.09;4956909;28;97603;-56
2022/03/26 03:18:59;;;;;;;11.83;10.10;;;14.10;86.30;;;15.01;42.14;102569.41;4954901;28;96901;-51
2022/03/26 03:21:25;;;;;;;25.57;19.63;;;14.20;86.80;;;15.02;42.03;102576.47;4958541;28;96985;-52
2022/03/26 03:23:51;;;;;;;16.77;12.07;;;14.20;84.90;;;15.00;42.13;102562.34;4948897;28;97443;-50
2022/03/26 03:26:17;;;;;;;20.70;16.37;;;14.10;85.90;;;15.04;42.06;102571.13;4957113;28;96792;-51
2022/03/26 03:28:43;;;;;;;28.63;22.60;;;14.20;85.40;;;15.02;41.89;102565.84;4949739;28;96749;-53
2022/03/26 03:31:09;;;;;;;12.37;10.40;;;14.10;85.10;;;14.95;42.24;102574.00;4948156;28;108699;-47
2022/03/26 03:33:36;;;;;;;11.97;10.10;;;14.00;86.70;;;14.96;42.32;102576.63;4948361;28;97652;-53
2022/03/26 03:36:02;;;;;;;12.93;10.07;;;14.10;87.30;;;14.99;42.11;102570.38;4950796;28;114362;-49
2022/03/26 03:38:28;;;;;;;12.13;9.57;;;14.10;86.80;;;14.98;42.16;102574.81;4963048;28;100897;-51
2022/03/26 03:40:55;;;;;;;14.00;11.03;;;14.10;86.80;;;14.97;42.08;102570.41;4951678;28;102243;-50
2022/03/26 03:43:22;;;;;;;27.63;19.80;;;14.10;86.70;;;14.97;41.87;102572.19;4964097;28;96866;-48
2022/03/26 03:45:48;;;;;;;21.63;17.03;;;14.10;85.40;;;14.94;42.26;102577.59;4955091;28;97568;-48
2022/03/26 03:48:23;;;;;;;12.17;10.57;;;14.00;86.50;;;14.96;41.93;102576.63;4945354;28;97184;-48
2022/03/26 03:50:55;;;;;;;11.47;10.20;;;14.10;86.60;;;14.97;41.94;102572.19;4935374;28;97054;-52
2022/03/26 03:53:21;;;;;;;19.07;14.20;;;14.10;86.00;;;14.95;41.98;102574.88;4956750;28;116096;-50
2022/03/26 03:55:47;;;;;;;16.93;14.40;;;14.10;85.40;;;14.92;42.09;102584.72;4948967;28;98243;-50
2022/03/26 03:58:12;;;;;;;23.43;18.37;;;14.00;85.20;;;14.78;42.13;102582.38;4956070;28;96772;-50
2022/03/26 04:00:38;;;;;;;19.20;13.83;;;13.80;86.00;;;14.72;42.59;102585.16;4960536;28;115869;-55
2022/03/26 04:03:04;;;;;;;14.17;11.13;;;13.60;87.70;;;14.68;42.51;102583.47;4946435;28;103057;-52
2022/03/26 04:05:30;;;;;;;19.80;14.43;;;13.70;87.20;;;14.62;42.73;102592.47;4958048;28;98074;-51
2022/03/26 04:08:05;;;;;;;24.80;18.37;;;13.60;88.30;;;14.62;43.00;102596.91;4961041;28;97543;-53
2022/03/26 04:10:31;;;;;;;33.60;25.00;;;13.60;88.90;;;14.57;42.90;102584.59;4904591;28;96967;-49
2022/03/26 04:12:57;;;;;;;18.00;15.13;;;13.50;88.00;;;14.54;42.89;102584.66;4901864;28;97490;-52
2022/03/26 04:15:22;;;;;;;19.43;14.33;;;13.50;88.30;;;14.53;43.07;102584.69;4951679;28;115760;-47
2022/03/26 04:17:51;;;;;;;34.70;25.77;;;13.50;88.80;;;14.55;42.61;102591.72;4960186;28;113788;-52
2022/03/26 04:20:16;;;;;;;24.07;16.73;;;13.60;86.60;;;14.54;43.15;102584.66;4960763;28;97538;-50
2022/03/26 04:22:42;;;;;;;12.80;10.63;;;13.60;87.20;;;14.53;43.18;102590.00;4955370;28;127324;-51
2022/03/26 04:25:10;;;;;;;28.57;22.10;;;13.50;88.70;;;14.54;42.97;102594.41;4963679;28;109470;-51
2022/03/26 04:27:36;;;;;;;24.87;16.97;;;13.50;87.60;;;14.51;43.06;102590.03;4953355;28;96953;-50
2022/03/26 04:30:02;;;;;;;30.97;21.67;;;13.50;87.40;;;14.53;42.89;102601.50;4962853;28;117685;-47
2022/03/26 04:32:29;;;;;;;23.97;18.30;;;13.50;87.50;;;14.51;43.02;102599.78;4958258;28;96919;-50
2022/03/26 04:34:55;;;;;;;24.00;19.97;;;13.40;87.90;;;14.47;42.92;102599.00;4962408;28;97745;-52
2022/03/26 04:37:21;;;;;;;16.53;13.43;;;13.40;87.30;;;14.47;43.21;102603.44;4960230;28;114626;-53
2022/03/26 04:39:47;;;;;;;22.83;16.63;;;13.40;88.20;;;14.44;43.31;102609.66;4956832;28;96828;-52
2022/03/26 04:42:13;;;;;;;21.60;15.43;;;13.40;88.80;;;14.45;43.20;102594.59;4963492;28;123090;-52
2022/03/26 04:44:39;;;;;;;23.50;19.10;;;13.40;89.40;;;14.45;43.13;102597.25;4962927;28;111911;-55
2022/03/26 04:47:05;;;;;;;15.63;12.13;;;13.50;87.50;;;14.43;43.23;102596.38;4963317;28;122062;-49
2022/03/26 04:49:31;;;;;;;12.97;10.90;;;13.40;87.80;;;14.43;43.28;102599.91;4963810;28;97473;-48
2022/03/26 04:51:56;;;;;;;31.13;22.17;;;13.40;89.50;;;14.44;43.26;102593.72;4960141;28;99817;-50
2022/03/26 04:54:22;;;;;;;12.93;11.13;;;13.40;87.50;;;14.46;43.03;102602.53;4963774;28;96830;-50
2022/03/26 04:56:48;;;;;;;21.77;15.80;;;13.50;88.60;;;14.51;42.93;102597.13;4957999;28;103643;-51
2022/03/26 04:59:13;;;;;;;26.70;19.07;;;13.60;87.10;;;14.52;42.83;102602.41;4958809;28;99530;-47
2022/03/26 05:01:41;;;;;;;26.17;19.93;;;13.60;87.00;;;14.52;42.87;102606.84;4956904;28;126180;-57
2022/03/26 05:04:06;;;;;;;13.20;11.23;;;13.50;86.80;;;14.49;42.79;102597.16;4964258;28;101361;-49
2022/03/26 05:06:32;;;;;;;34.13;23.50;;;13.50;87.20;;;14.46;42.91;102602.53;4963069;28;115940;-50
2022/03/26 05:08:58;;;;;;;30.83;23.87;;;13.40;86.90;;;14.38;42.71;102604.44;4962784;28;96951;-47
2022/03/26 05:11:24;;;;;;;14.00;11.67;;;13.30;87.80;;;14.30;43.36;102606.38;4964287;28;97405;-51
2022/03/26 05:13:49;;;;;;;19.83;13.03;;;13.20;88.60;;;14.30;43.22;102606.38;4953720;28;121730;-47
2022/03/26 05:16:15;;;;;;;18.80;15.53;;;13.20;88.60;;;14.29;43.38;102610.81;4963824;28;115369;-51
2022/03/26 05:18:41;;;;;;;25.07;18.07;;;13.20;88.40;;;14.27;43.37;102611.75;4956231;28;112764;-47
2022/03/26 05:21:08;;;;;;;13.80;11.90;;;13.20;88.10;;;14.24;43.33;102611.81;4959831;28;97162;-51
2022/03/26 05:23:35;;;;;;;23.30;18.53;;;13.10;89.10;;;14.25;43.16;102611.78;4960038;28;97558;-50
2022/03/26 05:26:01;;;;;;;20.07;14.83;;;13.20;88.40;;;14.24;43.31;102607.38;4958680;28;97053;-49
2022/03/26 05:28:27;;;;;;;22.20;17.23;;;13.20;88.60;;;14.25;43.41;102613.56;4954544;28;96857;-48
2022/03/26 05:30:53;;;;;;;22.60;17.90;;;13.20;88.00;;;14.23;43.25;102615.38;4959433;28;126808;-48
2022/03/26 05:33:20;;;;;;;17.60;14.23;;;13.20;88.20;;;14.25;43.52;102625.06;4965415;28;97689;-49
2022/03/26 05:35:46;;;;;;;19.93;15.20;;;13.20;89.00;;;14.26;43.33;102615.31;4961561;28;96832;-49
2022/03/26 05:38:11;;;;;;;20.43;14.27;;;13.20;88.20;;;14.25;43.35;102625.06;4966188;28;98259;-49
2022/03/26 05:40:37;;;;;;;13.30;10.33;;;13.20;88.40;;;14.28;43.43;102626.78;4966322;28;116455;-47
2022/03/26 05:43:04;;;;;;;15.90;11.53;;;13.30;89.10;;;14.32;43.28;102625.81;4959678;28;98295;-51
2022/03/26 05:45:30;;;;;;;31.87;23.10;;;13.30;89.30;;;14.29;43.22;102632.03;4960645;28;117844;-52
2022/03/26 05:48:01;;;;;;;26.60;20.47;;;13.30;88.00;;;14.30;43.44;102638.22;4957489;28;96859;-50
2022/03/26 05:50:28;;;;;;;13.63;11.53;;;13.30;88.70;;;14.33;43.33;102632.88;4963984;28;97762;-49
2022/03/26 05:52:54;;;;;;;12.17;9.90;;;13.30;89.50;;;14.37;43.41;102639.88;4950836;28;98401;-53
2022/03/26 05:55:20;;;;;;;13.07;9.90;;;13.40;90.20;;;14.46;43.23;102641.47;4953239;28;97263;-51
2022/03/26 05:57:46;;;;;;;13.77;10.77;;;13.60;89.20;;;14.51;42.96;102651.13;4956998;28;96982;-48
2022/03/26 06:00:12;;;;;;;17.50;14.43;;;13.70;87.90;;;14.53;43.06;102651.97;4956262;28;119947;-52
2022/03/26 06:02:38;;;;;;;14.43;10.83;;;13.70;87.80;;;14.53;43.11;102654.63;4962709;28;97167;-49
2022/03/26 06:05:04;;;;;;;19.77;14.80;;;13.70;88.20;;;14.57;42.94;102658.94;4972668;28;96815;-51
2022/03/26 06:07:31;;;;;;;20.57;14.83;;;13.70;87.90;;;14.57;43.00;102658.94;4965951;28;97010;-50
2022/03/26 06:09:57;;;;;;;26.77;20.20;;;13.60;88.40;;;14.58;42.85;102665.13;4957987;28;97587;-48
2022/03/26 06:12:23;;;;;;;14.37;10.90;;;13.60;88.00;;;14.62;42.75;102665.97;4966104;28;97170;-47
2022/03/26 06:14:49;;;;;;;24.00;17.10;;;13.70;87.70;;;14.59;42.73;102667.75;4951518;28;96881;-49
2022/03/26 06:17:15;;;;;;;23.70;17.83;;;13.60;88.10;;;14.62;42.96;102665.97;4964754;28;96824;-52
2022/03/26 06:19:42;;;;;;;15.03;10.90;;;13.60;88.70;;;14.63;42.91;102667.72;4956634;28;96820;-51
2022/03/26 06:22:08;;;;;;;13.37;10.93;;;13.70;88.20;;;14.69;42.63;102675.53;4959668;28;97055;-48
2022/03/26 06:24:35;;;;;;;17.73;12.23;;;13.80;88.60;;;14.73;42.74;102674.56;4962751;28;114520;-51
2022/03/26 06:27:01;;;;;;;32.03;21.20;;;13.90;88.20;;;14.70;42.50;102674.63;4959507;28;97354;-48
2022/03/26 06:29:27;;;;;;;26.57;18.97;;;13.80;87.90;;;14.72;42.54;102675.47;4961466;28;96902;-53
2022/03/26 06:31:53;;;;;;;29.27;21.60;;;13.80;87.80;;;14.67;42.60;102680.03;4960959;28;96900;-48
2022/03/26 06:34:19;;;;;;;38.50;26.03;;;13.70;88.30;;;14.61;42.47;102681.03;4962974;28;96919;-47
2022/03/26 06:36:44;;;;;;;28.53;21.73;;;13.60;87.60;;;14.54;42.40;102676.72;4960730;28;96880;-47
2022/03/26 06:39:10;;;;;;;34.33;25.37;;;13.50;87.70;;;14.49;42.51;102675.97;4958873;28;125765;-49
2022/03/26 06:41:39;;;;;;;27.97;21.23;;;13.50;87.70;;;14.41;43.23;102677.84;4957053;28;97081;-51
2022/03/26 06:44:07;;;;;;;32.60;23.23;;;13.40;89.20;;;14.32;43.28;102684.22;4959485;28;97205;-49
2022/03/26 06:46:35;;;;;;;34.93;23.07;;;13.30;89.60;;;14.29;43.14;102684.25;4963379;28;97063;-50
2022/03/26 06:49:02;;;;;;;18.13;14.27;;;13.30;89.20;;;14.30;43.50;102686.00;4958987;28;97467;-49
2022/03/26 06:51:27;;;;;;;28.87;18.57;;;13.30;90.00;;;14.29;43.37;102684.25;4963852;28;98296;-49
2022/03/26 06:53:53;;;;;;;30.87;20.60;;;13.40;90.30;;;14.35;43.41;102678.84;4941336;28;107220;-48
2022/03/26 06:56:19;;;;;;;21.87;15.20;;;13.40;88.90;;;14.39;43.35;102685.84;4956003;28;118080;-48
2022/03/26 06:58:44;;;;;;;21.27;15.50;;;13.50;88.70;;;14.43;43.10;102676.91;4944564;28;119972;-50
2022/03/26 07:01:11;;;;;;;18.90;14.23;;;13.60;89.10;;;14.46;43.18;102683.97;4946726;28;121824;-47
2022/03/26 07:03:37;;;;;;;30.93;21.20;;;13.60;88.70;;;14.46;42.67;102687.50;4957112;28;97021;-48
2022/03/26 07:06:04;;;;;;;27.33;18.47;;;13.60;88.10;;;14.46;42.87;102676.88;4942878;28;96999;-48
2022/03/26 07:08:30;;;;;;;20.07;15.17;;;13.60;89.30;;;14.56;42.87;102688.19;4957657;28;97600;-48
2022/03/26 07:10:56;;;;;;;14.37;11.20;;;13.70;88.60;;;14.61;42.79;102685.44;4957468;28;105393;-47
2022/03/26 07:13:22;;;;;;;31.03;21.60;;;13.80;88.80;;;14.66;42.43;102694.22;4960857;28;96892;-47
2022/03/26 07:15:48;;;;;;;10.77;9.47;;;13.90;87.20;;;14.73;42.46;102699.34;4958531;28;96956;-47
2022/03/26 07:18:15;;;;;;;13.07;10.00;;;14.00;88.90;;;14.85;42.25;102695.56;4961547;28;96776;-47
2022/03/26 07:20:41;;;;;;;11.53;9.37;;;14.30;88.20;;;14.98;41.90;102699.72;4954791;28;97294;-49
2022/03/26 07:23:07;;;;;;;12.00;10.17;;;14.50;87.20;;;15.08;41.53;102703.06;4964456;28;96577;-48
2022/03/26 07:25:33;;;;;;;11.30;10.10;;;14.60;86.40;;;15.17;41.55;102710.81;4950651;28;114251;-47
2022/03/26 07:28:00;;;;;;;11.33;9.77;;;14.70;85.60;;;15.29;41.27;102705.22;4953119;28;97286;-49
2022/03/26 07:30:26;;;;;;;13.80;11.93;;;14.90;85.30;;;15.41;40.96;102706.72;4953173;28;98000;-49
2022/03/26 07:32:52;;;;;;;18.07;15.53;;;15.10;83.80;;;15.44;40.96;102710.19;4949709;28;96675;-50
2022/03/26 07:35:17;;;;;;;20.97;15.00;;;15.10;83.70;;;15.42;41.00;102714.66;4959349;28;97328;-48
2022/03/26 07:37:43;;;;;;;38.63;27.10;;;15.00;85.60;;;15.30;38.99;102714.06;4941410;28;97153;-48
2022/03/26 07:40:10;;;;;;;31.27;24.20;;;14.80;83.00;;;15.39;41.31;102719.19;4953421;28;97080;-47
2022/03/26 07:42:36;;;;;;;44.10;28.80;;;14.80;86.20;;;15.43;40.87;102708.44;4962004;28;97382;-49
2022/03/26 07:45:04;;;;;;;45.43;32.97;;;14.90;82.60;;;15.35;40.73;102713.06;4952838;28;97937;-47
2022/03/26 07:47:29;;;;;;;53.67;33.07;;;14.80;84.00;;;15.12;40.57;102710.91;4954983;28;98303;-48
2022/03/26 07:49:55;;;;;;;37.10;25.10;;;14.50;84.40;;;15.08;41.64;102714.56;4941766;28;97122;-49
2022/03/26 07:52:21;;;;;;;44.00;31.07;;;14.40;84.90;;;15.07;41.69;102717.25;4953750;28;96774;-50
2022/03/26 07:54:47;;;;;;;44.53;30.70;;;14.40;85.40;;;15.04;41.23;102719.97;4939503;28;102777;-48
2022/03/26 07:57:13;;;;;;;45.70;30.83;;;14.40;84.10;;;15.04;41.53;102718.16;4959160;28;114448;-47
2022/03/26 07:59:40;;;;;;;47.77;32.43;;;14.40;84.40;;;14.84;40.52;102723.03;4960495;28;114128;-54
2022/03/26 08:02:06;;;;;;;51.63;34.20;;;14.30;83.70;;;14.63;40.71;102727.03;4923404;28;96892;-47
2022/03/26 08:04:32;;;;;;;53.80;35.50;;;14.10;84.70;;;14.42;41.43;102722.97;4955179;28;96889;-50
2022/03/26 08:06:58;;;;;;;55.37;34.43;;;13.90;85.90;;;14.45;42.40;102712.31;4958388;28;97012;-47
2022/03/26 08:09:24;;;;;;;58.17;38.10;;;13.90;86.70;;;14.61;41.53;102717.31;4953271;28;97131;-50
2022/03/26 08:11:49;;;;;;;51.13;35.40;;;14.10;85.20;;;14.35;41.56;102716.03;4956431;28;97303;-53
2022/03/26 08:14:15;;;;;;;46.93;29.17;;;14.00;85.50;;;14.43;42.90;102719.41;4957200;28;97284;-51
2022/03/26 08:16:41;;;;;;;50.60;33.00;;;14.00;87.30;;;14.49;42.31;102713.16;4955963;28;125455;-49
2022/03/26 08:19:07;;;;;;;49.17;33.30;;;14.00;86.70;;;14.46;42.12;102708.75;4957067;28;119718;-52
2022/03/26 08:21:35;;;;;;;44.87;31.27;;;14.00;87.20;;;14.49;42.64;102714.03;4956654;28;97325;-50
2022/03/26 08:24:04;;;;;;;42.83;28.27;;;14.00;87.80;;;14.66;42.95;102708.38;4953703;28;96953;-53
2022/03/26 08:26:30;;;;;;;44.07;27.93;;;14.10;88.30;;;14.86;42.47;102713.25;4957278;28;102825;-53
2022/03/26 08:28:59;;;;;;;41.80;27.40;;;14.50;87.20;;;15.05;41.79;102714.63;4953594;28;110665;-53
2022/03/26 08:31:28;;;;;;;45.53;29.70;;;14.80;85.10;;;15.00;41.39;102711.19;4963420;28;96928;-54
2022/03/26 08:33:54;;;;;;;45.07;29.93;;;14.80;84.70;;;14.96;41.16;102714.81;4948077;28;98983;-50
2022/03/26 08:36:21;;;;;;;45.27;31.13;;;14.70;84.90;;;15.01;41.66;102712.06;4959367;28;100161;-48
2022/03/26 08:38:48;;;;;;;36.33;25.00;;;14.70;86.20;;;15.01;41.93;102712.94;4957574;28;97170;-51
2022/03/26 08:41:19;;;;;;;27.23;17.63;;;14.60;86.10;;;15.07;41.98;102718.13;4957507;28;96768;-52
2022/03/26 08:43:47;;;;;;;46.20;31.13;;;14.70;86.20;;;15.06;41.21;102727.00;4956903;28;97027;-52
2022/03/26 08:46:13;;;;;;;46.13;30.93;;;14.70;85.30;;;14.94;41.98;102721.09;4948177;28;98784;-48
2022/03/26 08:48:39;;;;;;;43.93;31.77;;;14.60;86.40;;;15.07;41.41;102722.56;4959696;28;97439;-57
2022/03/26 08:51:05;;;;;;;45.10;29.73;;;14.70;85.70;;;15.21;41.43;102725.81;4959380;28;113910;-52
2022/03/26 08:53:31;;;;;;;51.53;33.40;;;14.90;85.40;;;15.02;41.87;102722.66;4963873;28;114904;-49
2022/03/26 08:55:57;;;;;;;44.30;30.80;;;14.80;85.80;;;14.99;41.72;102720.06;4952718;28;98589;-47
2022/03/26 08:58:23;;;;;;;36.53;25.80;;;14.70;85.60;;;15.08;41.94;102722.53;4959534;28;97063;-47
2022/03/26 09:00:51;;;;;;;46.60;31.53;;;14.80;86.20;;;15.23;41.39;102717.78;4952171;28;97743;-52
2022/03/26 09:03:20;;;;;;;47.27;32.57;;;15.00;85.00;;;15.29;41.57;102722.97;4961121;28;96619;-52
2022/03/26 09:05:47;;;;;;;45.63;31.77;;;15.10;85.40;;;15.37;41.85;102715.69;4961325;28;97386;-54
2022/03/26 09:08:14;;;;;;;54.27;32.10;;;15.20;86.00;;;15.33;41.63;102716.66;4966734;28;96954;-51
2022/03/26 09:10:40;;;;;;;47.13;31.20;;;15.10;85.50;;;15.41;41.33;102712.03;4963266;28;96855;-50
2022/03/26 09:13:06;;;;;;;48.57;32.97;;;15.20;85.60;;;15.37;41.07;102711.25;4965093;28;96829;-51
2022/03/26 09:15:32;;;;;;;46.90;32.13;;;15.10;84.70;;;15.56;41.00;102711.69;4961213;28;97635;-48
2022/03/26 09:17:59;;;;;;;43.47;29.13;;;15.30;84.50;;;15.72;40.93;102713.09;4962084;28;126187;-50
2022/03/26 09:20:26;;;;;;;48.87;30.27;;;15.60;83.70;;;15.86;40.35;102714.53;4960586;28;96802;-50
2022/03/26 09:22:52;;;;;;;50.37;33.23;;;15.80;82.90;;;15.80;40.03;102720.00;4963038;28;97157;-48
2022/03/26 09:25:20;;;;;;;46.90;30.93;;;15.70;82.20;;;15.96;40.45;102724.03;4959027;28;97863;-47
2022/03/26 09:27:46;;;;;;;45.40;32.63;;;15.90;82.80;;;15.91;40.43;102721.50;4954294;28;98174;-49
2022/03/26 09:30:12;;;;;;;49.60;33.80;;;15.80;83.10;;;15.99;39.68;102721.28;4957432;28;96593;-51
2022/03/26 09:32:38;;;;;;;44.00;31.33;;;15.90;81.90;;;15.92;39.54;102727.69;4966026;28;97109;-49
2022/03/26 09:35:05;;;;;;;52.80;32.53;;;15.80;81.70;;;15.88;40.38;102723.34;4956833;28;112304;-47
2022/03/26 09:37:30;;;;;;;46.33;31.83;;;15.80;82.70;;;15.88;40.84;102723.34;4962712;28;103501;-49
2022/03/26 09:39:56;;;;;;;51.00;32.93;;;15.70;84.40;;;15.85;41.42;102718.09;4959573;28;96829;-48
2022/03/26 09:42:24;;;;;;;18.27;13.80;;;15.70;85.60;;;15.96;40.58;102716.06;4960145;28;96886;-53
2022/03/26 09:44:51;;;;;;;47.10;32.63;;;15.80;83.50;;;15.98;40.93;102714.22;4955472;28;98875;-50
2022/03/26 09:47:17;;;;;;;41.10;28.23;;;15.90;84.60;;;16.13;39.91;102713.81;4961072;28;96722;-52
2022/03/26 09:49:43;;;;;;;42.37;26.73;;;16.00;83.10;;;16.19;40.26;102712.78;4954846;28;96974;-48
2022/03/26 09:52:09;;;;;;;34.70;26.77;;;16.10;83.50;;;16.18;40.47;102711.91;4961347;28;97414;-48
2022/03/26 09:54:36;;;;;;;47.40;33.27;;;16.10;84.10;;;16.21;41.21;102714.50;4961277;28;97101;-49